Time;durP1;ratioP1;P1;durP2;ratioP2;P2;SDS_P1;SDS_P2;PMS_P1;PMS_P2;Temp;Humidity;BMP_temperature;BMP_pressure;BME280_temperature;BME280_humidity;BME280_pressure;Samples;Min_cycle;Max_cycle;Signal;HPM_P1;HPM_P2
2023/01/02 00:00:22;;;;;;;16.43;6.00;;;;;;;8.33;65.55;100491.72;6040524;23;20527;-88
2023/01/02 00:02:48;;;;;;;13.40;6.80;;;;;;;8.34;65.42;100487.38;6015533;23;20168;-88
2023/01/02 00:05:13;;;;;;;15.37;6.27;;;;;;;8.35;65.23;100489.09;6040578;23;20150;-88
2023/01/02 00:07:39;;;;;;;21.33;7.37;;;;;;;8.29;65.09;100495.31;6040361;23;20185;-88
2023/01/02 00:10:04;;;;;;;15.70;7.37;;;;;;;8.23;64.77;100503.22;6040463;23;20153;-89
2023/01/02 00:12:30;;;;;;;18.77;7.77;;;;;;;8.18;64.47;100502.47;6040982;23;20208;-88
2023/01/02 00:14:55;;;;;;;15.30;7.87;;;;;;;8.26;64.86;100511.00;6041552;23;20189;-88
2023/01/02 00:17:21;;;;;;;20.03;8.00;;;;;;;8.30;64.86;100502.25;6015490;23;20194;-88
2023/01/02 00:19:46;;;;;;;14.47;6.40;;;;;;;8.26;64.88;100497.09;6041001;23;20209;-88
2023/01/02 00:22:12;;;;;;;17.30;7.80;;;;;;;8.26;64.79;100510.16;6040909;23;20150;-88
2023/01/02 00:24:37;;;;;;;17.00;7.40;;;;;;;8.18;65.80;100493.78;6040843;23;20150;-88
2023/01/02 00:27:02;;;;;;;13.13;6.77;;;;;;;8.03;66.84;100498.44;6040582;23;20155;-88
2023/01/02 00:29:28;;;;;;;16.83;7.27;;;;;;;7.96;66.71;100502.09;6015308;23;20169;-88
2023/01/02 00:31:53;;;;;;;12.73;7.10;;;;;;;7.88;67.16;100514.44;6038995;23;20245;-87
2023/01/02 00:34:19;;;;;;;13.23;6.17;;;;;;;7.82;67.67;100508.44;6040757;23;20218;-88
2023/01/02 00:36:44;;;;;;;17.50;6.90;;;;;;;7.86;67.53;100499.69;6040142;23;20205;-88
2023/01/02 00:39:09;;;;;;;15.67;6.43;;;;;;;7.90;67.76;100512.63;6016305;23;20155;-88
2023/01/02 00:41:35;;;;;;;19.53;7.13;;;;;;;7.91;67.44;100508.28;6040175;23;20606;-88
2023/01/02 00:44:00;;;;;;;13.30;5.20;;;;;;;7.94;66.81;100514.28;6015206;23;20244;-88
2023/01/02 00:46:26;;;;;;;11.00;5.20;;;;;;;7.99;66.31;100507.22;6039830;23;20222;-88
2023/01/02 00:48:51;;;;;;;10.93;5.43;;;;;;;7.90;66.56;100501.31;6040088;23;20451;-88
2023/01/02 00:51:16;;;;;;;10.93;5.17;;;;;;;7.69;67.12;100507.84;6040721;23;20150;-88
2023/01/02 00:53:42;;;;;;;13.80;6.00;;;;;;;7.73;67.47;100509.47;6040081;23;20237;-88
2023/01/02 00:56:07;;;;;;;13.13;5.93;;;;;;;7.68;66.82;100513.94;6015054;23;20169;-88
2023/01/02 00:58:33;;;;;;;15.67;6.93;;;;;;;7.60;66.96;100515.81;6039974;23;20579;-87
2023/01/02 01:00:58;;;;;;;18.67;8.97;;;;;;;7.43;66.45;100513.53;6040749;23;20150;-88
2023/01/02 01:03:24;;;;;;;21.87;10.60;;;;;;;7.42;66.65;100513.53;6015195;23;20200;-88
2023/01/02 01:05:49;;;;;;;25.37;10.37;;;;;;;7.42;65.96;100514.41;6040254;23;20154;-88
2023/01/02 01:08:14;;;;;;;21.90;10.10;;;;;;;7.38;65.61;100506.69;6039998;23;20161;-88
2023/01/02 01:10:40;;;;;;;25.97;9.93;;;;;;;7.30;65.30;100511.16;6039847;23;20161;-88
2023/01/02 01:13:05;;;;;;;18.83;8.67;;;;;;;7.24;65.22;100513.88;6040182;23;20173;-88
2023/01/02 01:15:32;;;;;;;19.37;9.10;;;;;;;7.16;64.49;100513.13;6040673;23;20539;-88
2023/01/02 01:17:58;;;;;;;18.57;8.57;;;;;;;7.11;64.49;100510.63;6014733;23;20217;-88
2023/01/02 01:20:23;;;;;;;18.73;9.60;;;;;;;7.08;64.96;100505.44;6040431;23;20157;-88
2023/01/02 01:22:49;;;;;;;21.30;8.70;;;;;;;7.02;64.21;100502.09;6040433;23;20156;-88
2023/01/02 01:25:14;;;;;;;16.37;8.67;;;;;;;6.96;64.19;100510.00;6040142;23;20154;-88
2023/01/02 01:27:40;;;;;;;17.50;7.80;;;;;;;6.88;63.80;100504.06;6014904;23;20233;-88
2023/01/02 01:30:06;;;;;;;11.60;6.43;;;;;;;6.84;64.55;100505.00;6040006;23;20149;-88
2023/01/02 01:32:31;;;;;;;12.67;5.87;;;;;;;6.77;64.51;100497.28;6038458;23;20582;-88
2023/01/02 01:34:57;;;;;;;11.93;5.40;;;;;;;6.74;64.82;100492.09;6014682;23;20168;-88
2023/01/02 01:37:22;;;;;;;9.30;5.10;;;;;;;6.66;65.41;100495.69;6039540;23;20224;-88
2023/01/02 01:39:47;;;;;;;16.20;5.97;;;;;;;6.66;66.17;100491.34;6014472;23;20165;-88
2023/01/02 01:42:13;;;;;;;9.30;4.90;;;;;;;6.74;65.71;100486.03;6014631;23;20464;-88
2023/01/02 01:44:41;;;;;;;18.73;6.47;;;;;;;6.69;66.43;100486.09;6039654;23;20160;-88
2023/01/02 01:47:24;;;;;;;14.50;6.10;;;;;;;6.66;66.80;100477.47;6040203;23;20145;-88
2023/01/02 01:50:09;;;;;;;11.07;5.93;;;;;;;6.65;66.24;100478.34;6039913;23;20149;-88
2023/01/02 01:52:42;;;;;;;15.30;6.27;;;;;;;6.64;66.39;100472.28;6024452;23;20157;-88
2023/01/02 01:55:22;;;;;;;9.20;5.20;;;;;;;6.62;66.01;100481.88;6014616;23;20567;-88
2023/01/02 01:57:56;;;;;;;10.43;5.23;;;;;;;6.59;66.44;100476.72;6039599;23;20177;-88
2023/01/02 02:00:22;;;;;;;17.40;6.63;;;;;;;6.63;66.23;100478.38;6040088;23;20142;-87
2023/01/02 02:02:50;;;;;;;11.90;5.30;;;;;;;6.60;66.25;100478.41;6039446;23;20297;-88
2023/01/02 02:05:20;;;;;;;12.47;5.83;;;;;;;6.61;65.68;100484.47;6014380;23;20157;-87
2023/01/02 02:08:03;;;;;;;21.10;7.23;;;;;;;6.57;65.95;100482.81;6014750;23;20149;-88
2023/01/02 02:10:29;;;;;;;11.17;4.60;;;;;;;6.53;66.04;100483.72;6038562;23;20154;-87
2023/01/02 02:12:54;;;;;;;12.83;4.90;;;;;;;6.49;66.18;100480.34;6014506;23;20572;-88
2023/01/02 02:15:35;;;;;;;20.53;5.50;;;;;;;6.48;65.68;100480.34;6039337;23;20162;-88
2023/01/02 02:18:07;;;;;;;12.37;5.60;;;;;;;6.50;65.90;100481.19;6039612;23;20222;-88
2023/01/02 02:20:41;;;;;;;11.30;4.37;;;;;;;6.47;65.39;100482.06;6039657;23;20153;-88
2023/01/02 02:23:18;;;;;;;9.67;4.67;;;;;;;6.37;65.58;100482.25;6014437;23;20145;-88
2023/01/02 02:26:02;;;;;;;9.97;4.40;;;;;;;6.32;66.22;100477.09;6039964;23;20613;-88
2023/01/02 02:29:01;;;;;;;8.80;3.97;;;;;;;6.17;67.03;100466.91;6039929;23;20153;-87
2023/01/02 02:31:45;;;;;;;14.27;5.50;;;;;;;6.44;66.37;100470.88;6040230;23;20158;-88
2023/01/02 02:34:19;;;;;;;12.23;5.93;;;;;;;6.34;67.28;100479.69;6039518;23;20149;-88
2023/01/02 02:37:00;;;;;;;10.30;4.87;;;;;;;6.14;68.80;100477.34;6037990;23;20258;-87
2023/01/02 02:39:55;;;;;;;10.50;5.00;;;;;;;6.10;69.87;100473.06;6039688;23;20461;-88
2023/01/02 02:42:46;;;;;;;13.67;6.03;;;;;;;6.12;70.72;100479.13;6014476;23;20160;-88
2023/01/02 02:45:29;;;;;;;19.97;6.87;;;;;;;6.09;71.97;100476.56;6014674;23;20146;-88
2023/01/02 02:48:06;;;;;;;14.93;6.90;;;;;;;6.21;72.33;100489.38;6039947;23;20442;-88
2023/01/02 02:51:01;;;;;;;15.23;7.60;;;;;;;6.25;72.95;100483.28;6039252;23;20188;-88
2023/01/02 02:53:48;;;;;;;18.17;8.17;;;;;;;6.30;72.97;100478.88;6038033;23;20233;-88
2023/01/02 02:56:16;;;;;;;16.17;7.60;;;;;;;6.48;72.57;100477.72;6039449;23;20142;-88
2023/01/02 02:58:42;;;;;;;15.10;7.40;;;;;;;6.56;72.41;100471.53;6039119;23;20150;-89
2023/01/02 03:01:16;;;;;;;16.20;7.30;;;;;;;6.61;71.69;100463.63;6039155;23;20154;-88
2023/01/02 03:03:42;;;;;;;15.03;7.00;;;;;;;6.59;70.85;100465.41;6039478;23;20206;-88
2023/01/02 03:06:17;;;;;;;14.83;7.40;;;;;;;6.58;70.22;100461.94;6039147;23;20160;-88
2023/01/02 03:08:48;;;;;;;20.87;7.73;;;;;;;6.59;69.40;100461.06;6039684;23;20261;-88
2023/01/02 03:11:14;;;;;;;14.23;6.50;;;;;;;6.57;69.08;100455.03;6041072;23;20178;-88
2023/01/02 03:13:58;;;;;;;11.27;6.13;;;;;;;6.51;68.42;100451.66;6041112;23;20173;-89
2023/01/02 03:16:42;;;;;;;12.47;5.80;;;;;;;6.49;67.13;100453.41;6016428;23;20606;-88
2023/01/02 03:19:22;;;;;;;14.37;6.60;;;;;;;6.43;66.96;100451.75;6040933;23;20164;-89
2023/01/02 03:22:08;;;;;;;20.37;7.93;;;;;;;6.41;66.65;100456.16;6041401;23;20622;-88
2023/01/02 03:24:35;;;;;;;13.93;6.13;;;;;;;6.34;66.17;100454.50;6041243;23;20225;-88
2023/01/02 03:27:05;;;;;;;21.37;8.40;;;;;;;6.30;66.19;100447.63;6016712;23;20237;-89
2023/01/02 03:29:30;;;;;;;13.37;6.23;;;;;;;6.24;66.12;100458.09;6017273;23;20702;-88
2023/01/02 03:32:00;;;;;;;16.13;6.77;;;;;;;6.20;65.91;100453.84;6040792;23;20590;-89
2023/01/02 03:34:30;;;;;;;15.63;6.97;;;;;;;6.16;65.54;100444.34;6039601;23;20247;-89
2023/01/02 03:37:02;;;;;;;12.47;6.27;;;;;;;6.11;65.45;100452.22;6041050;23;20264;-88
2023/01/02 03:39:31;;;;;;;14.80;6.80;;;;;;;6.05;65.53;100449.69;6041413;23;20595;-89
2023/01/02 03:42:02;;;;;;;13.13;5.87;;;;;;;5.97;65.97;100448.09;6015662;23;20158;-89
2023/01/02 03:44:34;;;;;;;14.07;5.43;;;;;;;5.95;65.85;100450.69;6041086;23;20142;-89
2023/01/02 03:47:34;;;;;;;12.00;5.43;;;;;;;5.87;65.71;100456.91;6041059;23;20138;-89
2023/01/02 03:50:06;;;;;;;12.70;6.10;;;;;;;5.89;65.68;100455.13;6040988;23;20145;-89
2023/01/02 03:52:31;;;;;;;13.13;5.10;;;;;;;5.94;66.08;100459.41;6015730;23;20161;-89
2023/01/02 03:54:58;;;;;;;10.93;5.50;;;;;;;6.05;65.76;100459.28;6040584;23;20445;-89
2023/01/02 03:57:52;;;;;;;10.63;5.73;;;;;;;6.21;65.31;100458.16;6015866;23;20196;-89
2023/01/02 04:00:20;;;;;;;10.63;5.97;;;;;;;6.22;65.65;100453.81;6015899;23;20604;-89
2023/01/02 04:02:54;;;;;;;11.40;5.60;;;;;;;6.20;65.63;100461.66;6015603;23;20161;-89
2023/01/02 04:05:29;;;;;;;16.60;5.53;;;;;;;6.19;65.82;100465.13;6040844;23;20138;-89
2023/01/02 04:08:01;;;;;;;13.23;5.47;;;;;;;6.23;66.05;100463.34;6015670;23;20481;-88
2023/01/02 04:10:29;;;;;;;17.33;5.17;;;;;;;6.25;66.60;100466.78;6015926;23;20174;-88
2023/01/02 04:13:01;;;;;;;18.53;5.70;;;;;;;6.09;67.68;100458.31;6015763;23;20225;-88
2023/01/02 04:15:28;;;;;;;9.17;3.73;;;;;;;6.04;68.07;100462.75;6015485;23;20178;-89
2023/01/02 04:18:08;;;;;;;14.37;5.80;;;;;;;6.00;68.37;100461.06;6015438;23;20189;-89
2023/01/02 04:20:40;;;;;;;8.67;4.33;;;;;;;5.90;69.04;100457.69;6040681;23;20223;-88
2023/01/02 04:23:12;;;;;;;17.23;4.77;;;;;;;5.89;69.06;100460.34;6015465;23;20215;-88
2023/01/02 04:25:57;;;;;;;9.17;4.27;;;;;;;5.99;69.26;100467.16;6040534;23;20138;-88
2023/01/02 04:28:29;;;;;;;8.83;4.13;;;;;;;6.14;68.81;100466.94;6041068;23;20130;-89
2023/01/02 04:31:12;;;;;;;10.50;5.07;;;;;;;6.22;69.00;100465.09;6015734;23;20220;-88
2023/01/02 04:33:44;;;;;;;8.83;3.70;;;;;;;6.28;68.79;100457.19;6016672;23;20237;-88
2023/01/02 04:36:10;;;;;;;9.40;4.13;;;;;;;6.32;68.82;100460.59;6040356;23;20174;-88
2023/01/02 04:38:36;;;;;;;11.17;4.70;;;;;;;6.32;68.83;100458.00;6015198;23;20161;-88
2023/01/02 04:41:03;;;;;;;8.00;4.80;;;;;;;6.17;69.27;100462.56;6015240;23;20162;-88
2023/01/02 04:43:29;;;;;;;10.03;5.00;;;;;;;6.02;69.89;100461.91;6039081;23;20184;-89
2023/01/02 04:45:54;;;;;;;9.10;4.87;;;;;;;6.02;70.18;100461.91;6040176;23;20204;-89
2023/01/02 04:48:19;;;;;;;9.70;4.50;;;;;;;6.10;70.06;100462.66;6040584;23;20150;-89
2023/01/02 04:50:45;;;;;;;8.87;3.93;;;;;;;6.04;70.40;100462.75;6040082;23;20487;-88
2023/01/02 04:53:11;;;;;;;8.07;3.83;;;;;;;6.07;70.29;100462.69;6039081;23;20236;-88
2023/01/02 04:55:39;;;;;;;10.47;4.20;;;;;;;6.25;70.05;100465.06;6015062;23;20154;-89
2023/01/02 04:58:05;;;;;;;9.77;4.20;;;;;;;6.38;69.51;100460.53;6039926;23;20180;-89
2023/01/02 05:00:31;;;;;;;7.87;4.10;;;;;;;6.40;69.81;100459.63;6015313;23;20225;-89
2023/01/02 05:02:56;;;;;;;8.50;4.30;;;;;;;6.38;70.23;100464.00;6039996;23;20153;-89
2023/01/02 05:05:22;;;;;;;13.70;4.60;;;;;;;6.15;70.01;100460.84;6039945;23;20150;-88
2023/01/02 05:07:47;;;;;;;5.73;3.80;;;;;;;6.10;70.78;100460.94;6039963;23;20157;-88
2023/01/02 05:10:13;;;;;;;8.93;4.43;;;;;;;6.20;70.56;100466.88;6039938;23;20153;-88
2023/01/02 05:12:38;;;;;;;7.57;3.70;;;;;;;6.26;70.27;100465.91;6014873;23;20165;-89
2023/01/02 05:15:06;;;;;;;6.73;3.57;;;;;;;6.30;70.40;100465.84;6040046;23;20212;-88
2023/01/02 05:17:35;;;;;;;10.20;3.80;;;;;;;6.18;70.96;100464.25;6039905;23;20187;-88
2023/01/02 05:20:02;;;;;;;9.07;3.80;;;;;;;6.07;70.81;100455.75;6040698;23;20160;-88
2023/01/02 05:25:12;;;;;;;6.40;3.57;;;;;;;6.06;71.57;100461.84;6040577;23;20177;-89
2023/01/02 05:27:37;;;;;;;5.90;3.20;;;;;;;5.97;71.73;100468.91;6039783;23;20509;-88
2023/01/02 05:30:03;;;;;;;9.83;3.23;;;;;;;5.86;71.71;100462.97;6039995;23;20181;-88
2023/01/02 05:32:29;;;;;;;7.00;3.50;;;;;;;5.83;72.10;100466.44;6039815;23;20228;-88
2023/01/02 05:34:54;;;;;;;5.60;2.80;;;;;;;5.85;72.65;100472.50;6039551;23;20153;-88
2023/01/02 05:37:19;;;;;;;6.23;3.20;;;;;;;5.83;72.56;100470.78;6039874;23;20182;-89
2023/01/02 05:39:45;;;;;;;9.30;3.27;;;;;;;5.90;72.64;100475.06;6039493;23;20570;-89
2023/01/02 05:42:10;;;;;;;6.53;3.03;;;;;;;6.04;72.20;100475.75;6014716;23;20171;-89
2023/01/02 05:44:36;;;;;;;9.13;2.47;;;;;;;6.21;71.65;100465.97;6039901;23;20157;-88
2023/01/02 05:47:01;;;;;;;6.43;2.90;;;;;;;6.22;71.35;100465.09;6039902;23;20168;-88
2023/01/02 05:49:26;;;;;;;7.67;3.60;;;;;;;6.13;71.30;100466.06;6039745;23;20603;-89
2023/01/02 05:51:52;;;;;;;6.27;2.70;;;;;;;6.08;71.20;100461.81;6039553;23;20484;-89
2023/01/02 05:54:17;;;;;;;7.00;3.53;;;;;;;6.07;71.30;100467.91;6039441;23;20149;-88
2023/01/02 05:56:43;;;;;;;6.73;3.03;;;;;;;6.08;71.35;100467.88;6014623;23;20190;-88
2023/01/02 05:59:08;;;;;;;8.47;3.20;;;;;;;6.08;70.92;100472.22;6014506;23;20238;-89
2023/01/02 06:01:34;;;;;;;6.43;3.13;;;;;;;6.14;70.63;100467.81;6039515;23;20224;-89
2023/01/02 06:04:00;;;;;;;7.20;3.13;;;;;;;6.22;71.07;100474.63;6015002;23;20171;-89
2023/01/02 06:06:31;;;;;;;11.97;3.40;;;;;;;6.12;71.13;100476.50;6039331;23;20150;-89
2023/01/02 06:09:00;;;;;;;7.67;3.10;;;;;;;6.10;71.27;100478.28;6014491;23;20157;-89
2023/01/02 06:11:27;;;;;;;9.90;3.43;;;;;;;6.21;71.40;100480.75;6014493;23;20270;-88
2023/01/02 06:13:53;;;;;;;6.50;3.10;;;;;;;6.32;71.05;100481.44;6014753;23;20177;-89
2023/01/02 06:16:19;;;;;;;8.43;3.53;;;;;;;6.31;71.48;100485.81;6014443;23;20227;-89
2023/01/02 06:18:44;;;;;;;9.53;4.17;;;;;;;6.28;71.73;100484.97;6014617;23;20165;-89
2023/01/02 06:21:13;;;;;;;8.93;3.97;;;;;;;6.25;71.79;100480.69;6039490;23;20150;-89
2023/01/02 06:23:40;;;;;;;10.37;5.13;;;;;;;6.30;72.41;100484.06;6015704;23;20154;-89
2023/01/02 06:26:10;;;;;;;8.47;4.50;;;;;;;6.35;72.53;100482.25;6039341;23;20213;-89
2023/01/02 06:28:36;;;;;;;9.27;3.97;;;;;;;6.43;72.31;100493.44;6014727;23;20559;-89
2023/01/02 06:31:03;;;;;;;7.80;3.77;;;;;;;6.55;72.54;100495.03;6014786;23;20174;-89
2023/01/02 06:33:29;;;;;;;12.53;5.03;;;;;;;6.63;72.44;100488.78;6039314;23;20229;-89
2023/01/02 06:36:07;;;;;;;14.20;5.20;;;;;;;6.73;72.95;100487.75;6039695;23;20554;-89
2023/01/02 06:38:33;;;;;;;8.17;3.53;;;;;;;6.87;72.88;100489.28;6039548;23;20193;-89
2023/01/02 06:41:00;;;;;;;8.50;3.83;;;;;;;7.13;72.41;100489.72;6014351;23;20209;-89
2023/01/02 06:43:27;;;;;;;9.07;4.63;;;;;;;7.55;73.15;100488.13;6039520;23;20165;-89
2023/01/02 06:45:55;;;;;;;14.87;5.37;;;;;;;8.11;73.20;100481.75;6041348;23;20160;-90
2023/01/02 06:48:21;;;;;;;9.63;5.10;;;;;;;8.83;73.10;100489.72;6016555;23;20158;-89
2023/01/02 06:50:46;;;;;;;14.70;6.03;;;;;;;9.55;71.02;100476.53;6016623;23;20157;-89
2023/01/02 06:53:12;;;;;;;10.70;4.77;;;;;;;10.19;68.00;100484.31;6041508;23;20176;-89
2023/01/02 06:55:37;;;;;;;14.77;6.00;;;;;;;10.49;64.95;100482.53;6041101;23;20160;-89
2023/01/02 06:58:03;;;;;;;11.17;5.07;;;;;;;10.61;63.50;100476.06;6041091;23;20190;-89
2023/01/02 07:00:29;;;;;;;11.30;6.00;;;;;;;10.67;61.93;100478.47;6041425;23;20157;-89
2023/01/02 07:02:54;;;;;;;16.93;6.17;;;;;;;10.70;61.91;100481.00;6016152;23;20158;-89
2023/01/02 07:05:20;;;;;;;14.20;6.00;;;;;;;10.72;62.45;100480.03;6016749;23;20235;-89
2023/01/02 07:07:45;;;;;;;15.73;6.77;;;;;;;10.75;62.73;100479.94;6016186;23;20160;-88
2023/01/02 07:10:11;;;;;;;15.10;6.77;;;;;;;10.81;62.13;100484.13;6040371;23;20226;-89
2023/01/02 07:12:37;;;;;;;24.97;9.63;;;;;;;10.95;61.93;100492.44;6016663;23;20579;-89
2023/01/02 07:15:06;;;;;;;19.73;11.10;;;;;;;11.13;61.47;100494.44;6016277;23;20211;-89
2023/01/02 07:17:32;;;;;;;28.00;13.77;;;;;;;11.33;59.38;100486.75;6016318;23;20656;-89
2023/01/02 07:19:58;;;;;;;41.60;19.87;;;;;;;11.41;58.56;100492.59;6041028;23;20178;-89
2023/01/02 07:22:24;;;;;;;54.30;25.13;;;;;;;11.45;57.76;100488.13;6041428;23;20529;-89
2023/01/02 07:24:50;;;;;;;49.67;20.37;;;;;;;11.44;57.29;100489.88;6041453;23;20161;-88
2023/01/02 07:27:15;;;;;;;41.63;20.87;;;;;;;11.29;57.08;100493.03;6039855;23;20241;-89
2023/01/02 07:29:40;;;;;;;38.57;19.77;;;;;;;11.18;57.67;100503.03;6016975;23;20164;-89
2023/01/02 07:32:06;;;;;;;45.27;19.13;;;;;;;11.06;57.54;100498.16;6040793;23;20533;-88
2023/01/02 07:34:31;;;;;;;48.13;21.90;;;;;;;10.92;57.99;100497.78;6041214;23;20194;-89
2023/01/02 07:36:57;;;;;;;47.53;21.70;;;;;;;10.79;58.35;100502.56;6041410;23;20178;-88
2023/01/02 07:39:22;;;;;;;46.10;19.83;;;;;;;10.74;59.50;100508.84;6040930;23;20150;-88
2023/01/02 07:41:48;;;;;;;29.23;15.23;;;;;;;10.72;59.53;100505.41;6040719;23;20150;-88
2023/01/02 07:44:13;;;;;;;34.00;14.37;;;;;;;10.72;60.32;100508.03;6041427;23;20620;-88
2023/01/02 07:46:39;;;;;;;33.37;14.67;;;;;;;10.68;61.56;100506.41;6040670;23;20567;-88
2023/01/02 07:49:04;;;;;;;28.87;14.37;;;;;;;10.75;62.48;100506.16;6040691;23;20164;-88
2023/01/02 07:51:30;;;;;;;30.97;14.17;;;;;;;10.75;63.55;100505.31;6016124;23;20486;-88
2023/01/02 07:53:56;;;;;;;31.57;13.03;;;;;;;10.78;64.48;100500.84;6040533;23;20153;-88
2023/01/02 07:56:22;;;;;;;26.40;12.13;;;;;;;10.85;65.34;100501.47;6039941;23;20193;-88
2023/01/02 07:58:48;;;;;;;27.30;10.60;;;;;;;10.92;65.69;100498.66;6040929;23;20190;-89
2023/01/02 08:01:13;;;;;;;25.63;10.93;;;;;;;11.03;65.63;100495.66;6039787;23;20169;-88
2023/01/02 08:03:40;;;;;;;28.20;12.10;;;;;;;11.06;65.69;100503.41;6040962;23;20478;-88
2023/01/02 08:06:08;;;;;;;33.20;15.10;;;;;;;11.15;66.01;100503.13;6040546;23;20154;-89
2023/01/02 08:08:34;;;;;;;30.43;12.30;;;;;;;11.24;65.62;100494.94;6040833;23;20157;-88
2023/01/02 08:11:26;;;;;;;21.33;10.03;;;;;;;11.29;65.89;100503.53;6040876;23;20150;-88
2023/01/02 08:13:54;;;;;;;21.70;10.17;;;;;;;11.31;66.84;100512.22;6036275;23;20496;-88
2023/01/02 08:16:21;;;;;;;20.70;10.57;;;;;;;11.45;66.87;100509.94;6040361;23;20626;-88
2023/01/02 08:18:50;;;;;;;18.87;8.60;;;;;;;11.59;67.19;100506.84;6040336;23;20154;-88
2023/01/02 08:21:15;;;;;;;26.87;10.53;;;;;;;11.77;66.93;100500.97;6016044;23;20158;-89
2023/01/02 08:23:41;;;;;;;16.47;8.87;;;;;;;11.90;66.02;100498.78;6040823;23;20153;-89
2023/01/02 08:26:09;;;;;;;17.23;8.77;;;;;;;12.00;64.98;100498.38;6040511;23;20158;-89
2023/01/02 08:28:37;;;;;;;17.33;8.70;;;;;;;12.13;64.10;100504.06;6041071;23;20221;-90
2023/01/02 08:31:18;;;;;;;17.43;8.43;;;;;;;12.23;63.68;100497.53;6015954;23;20221;-89
2023/01/02 08:33:44;;;;;;;17.87;7.63;;;;;;;12.34;63.84;100500.63;6015727;23;20149;-88
2023/01/02 08:36:10;;;;;;;18.77;9.07;;;;;;;12.47;63.62;100496.63;6016437;23;20447;-88
2023/01/02 08:38:35;;;;;;;17.53;8.40;;;;;;;12.55;62.57;100494.53;6040711;23;20183;-88
2023/01/02 08:41:01;;;;;;;22.63;10.97;;;;;;;12.72;62.09;100491.25;6040867;23;20826;-88
2023/01/02 08:43:26;;;;;;;21.40;9.77;;;;;;;12.90;62.01;100487.88;6015423;23;20225;-89
2023/01/02 08:45:55;;;;;;;17.00;9.10;;;;;;;13.09;61.20;100485.38;6040379;23;20189;-89
2023/01/02 08:48:20;;;;;;;16.90;8.37;;;;;;;13.19;60.75;100476.16;6015399;23;20160;-88
2023/01/02 08:50:46;;;;;;;20.30;8.90;;;;;;;13.27;59.94;100480.19;6040782;23;20551;-88
2023/01/02 08:53:11;;;;;;;22.33;11.03;;;;;;;13.37;59.60;100484.16;6040279;23;20157;-88
2023/01/02 08:55:37;;;;;;;26.00;9.83;;;;;;;13.44;59.09;100476.84;6040305;23;20158;-89
2023/01/02 08:58:02;;;;;;;20.20;9.70;;;;;;;13.61;58.29;100476.09;6041335;23;20204;-88
2023/01/02 09:00:28;;;;;;;18.27;9.37;;;;;;;13.88;58.05;100465.22;6040677;23;20156;-88
2023/01/02 09:02:53;;;;;;;22.43;10.03;;;;;;;14.03;57.45;100464.53;6015484;23;20162;-88
2023/01/02 09:05:19;;;;;;;20.50;10.73;;;;;;;14.11;56.61;100465.03;6040612;23;20565;-88
2023/01/02 09:07:44;;;;;;;22.83;10.70;;;;;;;14.12;56.05;100458.81;6040237;23;20145;-88
2023/01/02 09:10:13;;;;;;;23.33;10.90;;;;;;;14.25;56.43;100453.00;6040966;23;20154;-88
2023/01/02 09:12:38;;;;;;;32.27;13.40;;;;;;;14.36;55.00;100450.75;6040188;23;20165;-88
2023/01/02 09:15:04;;;;;;;22.87;11.77;;;;;;;14.45;54.80;100460.84;6040228;23;20170;-88
2023/01/02 09:17:30;;;;;;;30.53;14.60;;;;;;;14.62;54.03;100453.00;6040376;23;20318;-88
2023/01/02 09:19:56;;;;;;;31.70;15.07;;;;;;;14.71;53.69;100447.25;6040511;23;20594;-88
2023/01/02 09:22:21;;;;;;;26.83;12.33;;;;;;;14.92;52.84;100440.94;6038967;23;20166;-88
2023/01/02 09:24:46;;;;;;;27.10;14.13;;;;;;;14.94;51.85;100444.34;6040146;23;20178;-89
2023/01/02 09:27:12;;;;;;;31.03;14.60;;;;;;;15.01;50.98;100431.69;6040132;23;20193;-89
2023/01/02 09:29:37;;;;;;;26.17;13.47;;;;;;;15.15;51.01;100430.06;6040073;23;20188;-89
2023/01/02 09:32:03;;;;;;;19.93;11.33;;;;;;;15.24;50.31;100419.03;6040435;23;20237;-89
2023/01/02 09:34:29;;;;;;;27.03;12.00;;;;;;;15.21;49.99;100415.69;6040084;23;20168;-88
2023/01/02 09:36:54;;;;;;;18.73;8.60;;;;;;;15.26;50.35;100425.09;6039880;23;20181;-89
2023/01/02 09:39:19;;;;;;;20.97;10.67;;;;;;;15.43;49.33;100415.44;6040597;23;20212;-88
2023/01/02 09:41:57;;;;;;;16.70;9.17;;;;;;;15.47;49.63;100417.88;6040261;23;20213;-89
2023/01/02 09:44:29;;;;;;;17.20;8.03;;;;;;;15.63;48.96;100405.56;6037708;23;20152;-89
2023/01/02 09:47:22;;;;;;;16.60;8.00;;;;;;;15.87;48.10;100411.34;6039581;23;20177;-88
2023/01/02 09:49:52;;;;;;;22.93;9.80;;;;;;;15.83;47.99;100404.50;6039560;23;20142;-89
2023/01/02 09:52:22;;;;;;;22.20;9.80;;;;;;;15.93;47.80;100401.25;6039333;23;20185;-89
2023/01/02 09:54:47;;;;;;;20.97;9.33;;;;;;;16.06;47.50;100398.81;6015066;23;20154;-89
2023/01/02 09:57:26;;;;;;;19.90;10.50;;;;;;;16.17;46.99;100387.66;6039565;23;20177;-88
2023/01/02 09:59:59;;;;;;;22.60;9.27;;;;;;;16.05;47.30;100390.97;6014923;23;20533;-88
2023/01/02 10:02:37;;;;;;;20.03;10.60;;;;;;;15.82;46.90;100389.59;6039816;23;20155;-88
2023/01/02 10:05:24;;;;;;;24.57;10.83;;;;;;;15.95;47.55;100388.84;6039592;23;20203;-88
2023/01/02 10:08:22;;;;;;;16.23;8.87;;;;;;;15.70;48.34;100377.00;6040126;23;20164;-89
2023/01/02 10:11:01;;;;;;;15.63;8.70;;;;;;;16.07;48.28;100366.13;5941862;23;20176;-88
2023/01/02 10:13:34;;;;;;;15.83;8.50;;;;;;;16.34;48.65;100369.88;6039586;23;20562;-89
2023/01/02 10:16:04;;;;;;;20.23;8.30;;;;;;;16.50;48.24;100357.50;6039526;23;20192;-89
2023/01/02 10:18:40;;;;;;;13.57;7.70;;;;;;;16.58;47.66;100355.28;6039367;23;20181;-88
2023/01/02 10:21:14;;;;;;;16.73;6.93;;;;;;;16.71;47.23;100354.56;6039638;23;20149;-89
2023/01/02 10:23:54;;;;;;;12.83;7.17;;;;;;;16.81;47.11;100347.78;6039855;23;20140;-89
2023/01/02 10:26:27;;;;;;;17.43;6.60;;;;;;;16.81;47.73;100345.13;6040105;23;20166;-89
2023/01/02 10:29:04;;;;;;;11.37;5.83;;;;;;;17.07;47.66;100328.53;6039899;23;20210;-87
2023/01/02 10:32:04;;;;;;;10.40;4.80;;;;;;;17.29;45.72;100326.31;6014715;23;20153;-88
2023/01/02 10:35:08;;;;;;;17.57;7.10;;;;;;;17.32;44.77;100331.41;6014500;23;20558;-88
2023/01/02 10:37:34;;;;;;;14.80;6.30;;;;;;;17.25;46.54;100324.78;5925611;24;20199;-88
2023/01/02 10:40:00;;;;;;;13.43;6.37;;;;;;;17.49;46.44;100320.63;5902791;24;20161;-88
2023/01/02 10:42:26;;;;;;;10.53;6.03;;;;;;;17.67;45.40;100316.84;5956030;23;20185;-88
2023/01/02 10:44:52;;;;;;;11.23;5.90;;;;;;;17.92;45.02;100313.50;6014894;23;20479;-87
2023/01/02 10:47:36;;;;;;;13.33;6.67;;;;;;;17.98;45.04;100317.53;6039997;23;20157;-88
2023/01/02 10:50:09;;;;;;;25.87;9.43;;;;;;;18.21;45.59;100301.84;6039737;23;20509;-90
2023/01/02 10:53:05;;;;;;;27.30;10.43;;;;;;;18.38;44.80;100300.75;6039664;23;20142;-89
2023/01/02 10:55:40;;;;;;;15.70;7.00;;;;;;;18.32;43.36;100293.16;6039693;23;20569;-89
2023/01/02 10:58:20;;;;;;;10.87;5.93;;;;;;;18.32;43.98;100290.53;6014285;23;20197;-89
2023/01/02 11:00:47;;;;;;;14.90;5.40;;;;;;;18.33;43.66;100292.22;6039355;23;20142;-88
2023/01/02 11:03:31;;;;;;;13.40;5.73;;;;;;;18.50;43.70;100286.69;6039302;23;20565;-89
2023/01/02 11:05:57;;;;;;;11.37;5.90;;;;;;;18.61;42.86;100281.50;6040007;23;20142;-89
2023/01/02 11:08:35;;;;;;;11.40;5.83;;;;;;;18.40;43.07;100285.56;6039585;23;20599;-88
2023/01/02 11:11:00;;;;;;;14.80;6.67;;;;;;;18.38;43.09;100284.81;6039236;23;20138;-88
2023/01/02 11:13:42;;;;;;;18.03;7.27;;;;;;;18.35;42.53;100269.09;6014139;23;20172;-89
2023/01/02 11:16:09;;;;;;;13.23;6.93;;;;;;;18.39;43.20;100267.94;6039923;23;20138;-88
2023/01/02 11:18:36;;;;;;;16.53;7.40;;;;;;;18.41;42.87;100264.22;6039068;23;20184;-88
2023/01/02 11:21:05;;;;;;;11.23;6.23;;;;;;;18.51;43.73;100259.19;6039030;23;20573;-90
2023/01/02 11:23:36;;;;;;;10.97;6.07;;;;;;;18.77;43.25;100254.75;6039176;23;20229;-89
2023/01/02 11:26:03;;;;;;;12.80;6.47;;;;;;;19.01;41.54;100253.06;6039610;23;20225;-89
2023/01/02 11:28:32;;;;;;;16.73;7.23;;;;;;;18.86;41.36;100248.81;6039423;23;20150;-89
2023/01/02 11:31:04;;;;;;;11.23;6.07;;;;;;;18.88;40.91;100244.25;6040107;23;20157;-90
2023/01/02 11:33:33;;;;;;;11.37;6.43;;;;;;;18.98;42.11;100238.19;6041296;23;20170;-89
2023/01/02 11:36:13;;;;;;;13.97;7.33;;;;;;;18.48;41.67;100238.13;6041200;23;20154;-89